Time;durP1;ratioP1;P1;durP2;ratioP2;P2;SDS_P1;SDS_P2;PMS_P1;PMS_P2;Temp;Humidity;BMP_temperature;BMP_pressure;BME280_temperature;BME280_humidity;BME280_pressure;Samples;Min_cycle;Max_cycle;Signal;HPM_P1;HPM_P2
2023/12/27 00:01:39;;;;;;;13.82;4.75;;;1.90;99.90;;;;;;6281151;22;20012;-92
2023/12/27 00:04:14;;;;;;;6.53;2.67;;;2.90;99.90;;;;;;6255226;22;20086;-93
2023/12/27 00:17:58;;;;;;;16.45;3.88;;;1.40;99.90;;;;;;6245144;22;20011;-92
2023/12/27 00:20:26;;;;;;;18.58;3.97;;;1.60;99.90;;;;;;6257594;22;20011;-92
2023/12/27 00:23:07;;;;;;;;;;;;;;;;;;;;;
2023/12/27 00:29:04;;;;;;;9.07;3.50;;;1.70;99.90;;;;;;6265063;22;20057;-93
2023/12/27 00:31:49;;;;;;;;;;;;;;;;;;;;;
2023/12/27 00:34:25;;;;;;;7.85;3.00;;;1.60;99.90;;;;;;6308012;22;20015;-92
2023/12/27 00:36:54;;;;;;;10.20;2.83;;;1.60;99.90;;;;;;6282256;22;20019;-93
2023/12/27 00:39:24;;;;;;;9.32;3.03;;;0.40;99.90;;;;;;6281784;22;20011;-93
2023/12/27 00:41:56;;;;;;;8.38;4.05;;;1.50;99.90;;;;;;6257122;22;20015;-91
2023/12/27 00:44:24;;;;;;;7.70;2.72;;;1.50;99.90;;;;;;6282460;22;20015;-93
2023/12/27 00:46:56;;;;;;;11.13;2.85;;;1.50;99.90;;;;;;6282148;22;20160;-92
2023/12/27 00:49:32;;;;;;;10.50;3.55;;;2.20;99.90;;;;;;6282576;22;20098;-92
2023/12/27 00:52:03;;;;;;;6.85;2.97;;;2.60;99.90;;;;;;6281346;22;20046;-93
2023/12/27 00:54:32;;;;;;;11.90;3.10;;;1.40;99.90;;;;;;6257178;22;20342;-92
2023/12/27 00:57:08;;;;;;;5.68;2.70;;;1.30;99.90;;;;;;6281702;22;20015;-92
2023/12/27 01:03:53;;;;;;;11.00;3.67;;;1.20;99.90;;;;;;6244889;22;20080;-93
2023/12/27 01:06:33;;;;;;;8.68;2.67;;;1.80;99.90;;;;;;6194298;23;20024;-92
2023/12/27 01:09:16;;;;;;;9.90;4.13;;;1.10;99.90;;;;;;6194669;23;20028;-93
2023/12/27 01:11:55;;;;;;;3.95;2.42;;;1.10;99.90;;;;;;6243062;22;20015;-92
2023/12/27 01:14:24;;;;;;;7.97;2.53;;;-0.10;99.90;;;;;;6257444;22;20050;-92
2023/12/27 01:17:04;;;;;;;10.77;3.13;;;0.80;99.90;;;;;;6307119;22;20047;-92
2023/12/27 01:19:36;;;;;;;7.63;3.03;;;0.90;99.90;;;;;;6281927;22;20500;-92
2023/12/27 01:22:04;;;;;;;8.05;2.95;;;0.80;99.90;;;;;;6281181;22;20022;-93
2023/12/27 01:24:30;;;;;;;6.75;2.83;;;0.90;99.90;;;;;;6281513;22;20019;-93
2023/12/27 01:26:56;;;;;;;6.80;2.38;;;2.10;99.90;;;;;;6281311;22;20022;-93
2023/12/27 01:29:35;;;;;;;;;;;;;;;;;;;;;
2023/12/27 01:32:08;;;;;;;7.13;3.00;;;0.90;99.90;;;;;;6283761;22;20015;-92
2023/12/27 01:34:42;;;;;;;7.97;2.78;;;2.10;99.90;;;;;;6257944;22;20015;-93
2023/12/27 01:37:11;;;;;;;5.20;2.63;;;0.00;99.90;;;;;;6281900;22;20080;-93
2023/12/27 01:39:57;;;;;;;7.18;2.75;;;2.20;99.90;;;;;;6281546;22;20011;-93
2023/12/27 01:42:36;;;;;;;9.02;3.30;;;2.00;99.90;;;;;;6281525;22;20351;-93
2023/12/27 01:45:05;;;;;;;8.85;2.53;;;0.80;99.90;;;;;;6234272;22;20016;-93
2023/12/27 01:47:33;;;;;;;6.00;3.00;;;0.70;99.90;;;;;;6281256;22;20020;-92
2023/12/27 01:50:11;;;;;;;12.65;2.95;;;0.80;99.90;;;;;;6281690;22;20011;-93
2023/12/27 01:52:50;;;;;;;6.00;3.00;;;0.70;99.90;;;;;;6256766;22;20015;-92
2023/12/27 01:55:19;;;;;;;4.68;2.72;;;1.60;99.90;;;;;;6281127;22;20019;-93
2023/12/27 01:58:13;;;;;;;;;;;;;;;;;;;;;
2023/12/27 02:00:56;;;;;;;;;;;;;;;;;;;;;
2023/12/27 02:03:24;;;;;;;7.80;2.92;;;0.60;99.90;;;;;;6306752;22;20012;-92
2023/12/27 02:05:56;;;;;;;6.70;2.97;;;0.70;99.90;;;;;;6281576;22;20053;-93
2023/12/27 02:08:23;;;;;;;9.40;3.10;;;0.70;99.90;;;;;;6281191;22;20033;-92
2023/12/27 02:10:55;;;;;;;6.40;3.47;;;-0.10;99.90;;;;;;6255483;22;20028;-92
2023/12/27 02:13:28;;;;;;;7.47;2.80;;;0.80;99.90;;;;;;6281036;22;20019;-92
2023/12/27 02:16:21;;;;;;;10.60;2.78;;;1.60;99.90;;;;;;6231672;22;20015;-92
2023/12/27 02:18:57;;;;;;;6.50;2.63;;;2.00;99.90;;;;;;6257721;22;20065;-92
2023/12/27 02:21:25;;;;;;;7.70;3.13;;;1.00;99.90;;;;;;6280669;22;20094;-92
2023/12/27 02:23:55;;;;;;;6.25;2.75;;;0.40;99.90;;;;;;6280910;22;20022;-93
2023/12/27 02:26:32;;;;;;;10.90;2.83;;;1.70;99.90;;;;;;6281044;22;20023;-93
2023/12/27 02:29:21;;;;;;;9.02;2.65;;;1.90;99.90;;;;;;6280825;22;20019;-93
2023/12/27 02:31:53;;;;;;;9.88;2.90;;;0.00;99.90;;;;;;6280347;22;20015;-92
2023/12/27 02:34:37;;;;;;;;;;;;;;;;;;;;;
2023/12/27 02:37:12;;;;;;;12.05;3.42;;;0.40;99.90;;;;;;6305943;22;20022;-92
2023/12/27 02:39:38;;;;;;;10.82;3.65;;;0.80;99.90;;;;;;6255790;22;20084;-92
2023/12/27 02:42:06;;;;;;;8.07;3.57;;;1.40;99.90;;;;;;6306118;22;20451;-92
2023/12/27 02:44:46;;;;;;;19.35;4.75;;;1.60;99.90;;;;;;6254679;22;20026;-93
2023/12/27 02:47:15;;;;;;;11.43;3.80;;;0.40;99.90;;;;;;6257636;22;20442;-93
2023/12/27 02:49:47;;;;;;;12.90;3.70;;;1.80;99.90;;;;;;6280627;22;20153;-92
2023/12/27 02:52:22;;;;;;;11.68;4.90;;;0.30;99.90;;;;;;6279628;22;20019;-92
2023/12/27 02:54:48;;;;;;;11.90;4.25;;;0.70;99.90;;;;;;6255103;22;20020;-93
2023/12/27 02:57:18;;;;;;;13.00;3.93;;;1.70;99.90;;;;;;6280503;22;20338;-93
2023/12/27 03:00:05;;;;;;;;;;;;;;;;;;;;;
2023/12/27 03:02:38;;;;;;;15.80;3.75;;;0.60;99.90;;;;;;6283524;22;20022;-93
2023/12/27 03:05:07;;;;;;;10.85;3.42;;;0.60;99.90;;;;;;6280242;22;20019;-92
2023/12/27 03:07:35;;;;;;;11.73;3.40;;;0.40;99.90;;;;;;6280699;22;20022;-92
2023/12/27 03:10:27;;;;;;;7.20;3.15;;;0.50;99.90;;;;;;6254886;22;20026;-93
2023/12/27 03:13:10;;;;;;;;;;;;;;;;;;;;;
2023/12/27 03:15:44;;;;;;;11.45;3.95;;;1.80;99.90;;;;;;6305785;22;20012;-93
2023/12/27 03:18:15;;;;;;;10.32;3.70;;;0.40;99.90;;;;;;6254892;22;20451;-93
2023/12/27 03:20:43;;;;;;;4.43;3.08;;;0.70;99.90;;;;;;6254506;22;20459;-93
2023/12/27 03:23:11;;;;;;;4.78;2.90;;;1.90;99.90;;;;;;6280154;22;20023;-94
2023/12/27 03:25:53;;;;;;;;;;;;;;;;;;;;;
2023/12/27 03:28:32;;;;;;;16.23;5.57;;;1.70;99.90;;;;;;6282598;22;20055;-93
2023/12/27 03:31:01;;;;;;;11.65;4.82;;;1.90;99.90;;;;;;6255979;22;20107;-93
2023/12/27 03:33:30;;;;;;;17.57;5.13;;;0.60;99.90;;;;;;6280173;22;20050;-93
2023/12/27 03:36:05;;;;;;;10.20;5.20;;;1.40;99.90;;;;;;6280532;22;20249;-93
2023/12/27 03:38:43;;;;;;;12.80;3.90;;;1.80;99.90;;;;;;6280857;22;20034;-93
2023/12/27 03:41:24;;;;;;;16.63;4.20;;;-0.40;99.90;;;;;;6256945;22;20065;-93
2023/12/27 03:43:54;;;;;;;8.30;3.67;;;2.00;99.90;;;;;;6259821;22;20011;-93
2023/12/27 03:46:25;;;;;;;7.90;3.92;;;0.50;99.90;;;;;;6283956;22;20019;-93
2023/12/27 03:48:51;;;;;;;8.10;3.85;;;1.90;99.90;;;;;;6258808;22;20012;-93
2023/12/27 03:51:30;;;;;;;8.47;4.27;;;0.40;99.90;;;;;;6283884;22;20017;-93
2023/12/27 03:54:03;;;;;;;7.35;4.45;;;0.50;99.90;;;;;;6258159;22;20023;-93
2023/12/27 03:56:35;;;;;;;12.25;4.35;;;0.10;99.90;;;;;;6259955;22;20090;-92
2023/12/27 03:59:03;;;;;;;11.20;5.55;;;0.60;99.90;;;;;;6283609;22;20232;-93
2023/12/27 04:01:36;;;;;;;14.27;6.25;;;1.60;99.90;;;;;;6284553;22;20461;-93
2023/12/27 04:04:07;;;;;;;11.23;5.07;;;0.50;99.90;;;;;;6259197;22;20012;-93
2023/12/27 04:06:43;;;;;;;10.73;4.95;;;0.40;99.90;;;;;;6283500;22;20015;-92
2023/12/27 04:09:20;;;;;;;9.83;4.90;;;0.50;99.90;;;;;;6283317;22;20021;-92
2023/12/27 04:11:55;;;;;;;8.95;4.35;;;1.80;99.90;;;;;;6283452;22;20015;-92
2023/12/27 04:14:31;;;;;;;15.50;5.47;;;0.50;99.90;;;;;;6283316;22;20026;-92
2023/12/27 04:17:02;;;;;;;11.13;4.80;;;0.80;99.90;;;;;;6259058;22;20016;-92
2023/12/27 04:19:37;;;;;;;11.10;4.70;;;1.30;99.90;;;;;;6258722;22;20446;-93
2023/12/27 04:22:07;;;;;;;8.30;4.78;;;0.50;99.90;;;;;;6283580;22;20011;-92
2023/12/27 04:24:59;;;;;;;8.90;4.43;;;0.50;99.90;;;;;;6259623;22;20015;-93
2023/12/27 04:27:25;;;;;;;12.10;4.63;;;0.40;99.90;;;;;;6261482;22;20094;-93
2023/12/27 04:30:13;;;;;;;11.00;4.60;;;0.40;99.90;;;;;;6282924;22;20543;-93
2023/12/27 04:33:01;;;;;;;15.43;6.50;;;1.80;99.90;;;;;;6262453;22;20090;-92
2023/12/27 04:35:32;;;;;;;18.38;6.55;;;-0.50;99.90;;;;;;6239164;22;20019;-93
2023/12/27 04:38:13;;;;;;;;;;;;;;;;;;;;;
2023/12/27 04:40:46;;;;;;;15.20;6.57;;;0.60;99.90;;;;;;6286386;22;20396;-92
2023/12/27 04:43:24;;;;;;;17.90;7.55;;;1.70;99.90;;;;;;6284051;22;20027;-93
2023/12/27 04:45:59;;;;;;;16.60;6.93;;;1.90;99.90;;;;;;6258496;22;20090;-93
2023/12/27 04:48:30;;;;;;;14.15;6.63;;;1.30;99.90;;;;;;6283462;22;20323;-93
2023/12/27 04:50:56;;;;;;;13.05;6.07;;;1.00;99.90;;;;;;6258586;22;20015;-92
2023/12/27 04:53:45;;;;;;;13.70;6.43;;;0.70;99.90;;;;;;6281524;22;20084;-93
2023/12/27 04:56:21;;;;;;;15.63;6.63;;;2.00;99.90;;;;;;6286783;22;20473;-93
2023/12/27 05:01:37;;;;;;;12.52;7.18;;;0.70;99.90;;;;;;6307490;22;20062;-93
2023/12/27 05:04:08;;;;;;;13.50;7.05;;;2.00;99.90;;;;;;6257432;22;20016;-92
2023/12/27 05:06:47;;;;;;;;;;;;;;;;;;;;;
2023/12/27 05:09:16;;;;;;;14.70;6.38;;;0.70;99.90;;;;;;6306805;22;20026;-95
2023/12/27 05:11:47;;;;;;;14.35;7.65;;;0.70;99.90;;;;;;6281425;22;20023;-93
2023/12/27 05:14:16;;;;;;;10.77;6.03;;;-0.50;99.90;;;;;;6281754;22;20065;-93
2023/12/27 05:16:56;;;;;;;;;;;;;;;;;;;;;
2023/12/27 05:19:27;;;;;;;15.50;6.75;;;1.10;99.90;;;;;;6306834;22;20258;-93
2023/12/27 05:21:58;;;;;;;11.07;6.40;;;0.50;99.90;;;;;;6281039;22;20015;-93
2023/12/27 05:24:24;;;;;;;12.85;6.22;;;0.90;99.90;;;;;;6280860;22;20018;-93
2023/12/27 05:26:50;;;;;;;16.07;7.30;;;1.30;99.90;;;;;;6280815;22;20068;-92
2023/12/27 05:29:21;;;;;;;15.00;6.95;;;1.70;99.90;;;;;;6281126;22;20547;-95
2023/12/27 05:31:51;;;;;;;16.83;7.68;;;-0.40;99.90;;;;;;6257106;22;20334;-93
2023/12/27 05:34:17;;;;;;;13.18;6.97;;;2.10;99.90;;;;;;6230999;22;20049;-94
2023/12/27 05:36:56;;;;;;;;;;;;;;;;;;;;;
2023/12/27 05:39:29;;;;;;;18.83;9.75;;;1.70;99.90;;;;;;6282973;22;20053;-92
2023/12/27 05:42:09;;;;;;;18.70;9.68;;;1.00;99.90;;;;;;6255794;22;20026;-93
2023/12/27 05:44:45;;;;;;;17.63;9.23;;;0.70;99.90;;;;;;6281177;22;20530;-93
2023/12/27 05:47:16;;;;;;;13.40;7.93;;;2.00;99.90;;;;;;6231050;22;20023;-92
2023/12/27 05:50:10;;;;;;;;;;;;;;;;;;;;;
2023/12/27 05:52:51;;;;;;;14.45;9.18;;;0.80;99.90;;;;;;6284757;22;20019;-92
2023/12/27 05:55:32;;;;;;;;;;;;;;;;;;;;;
2023/12/27 05:58:03;;;;;;;18.85;9.38;;;0.90;99.90;;;;;;6306794;22;20093;-92
2023/12/27 06:00:32;;;;;;;15.98;10.15;;;0.90;99.90;;;;;;6257091;22;20065;-93
2023/12/27 06:03:01;;;;;;;29.47;11.97;;;1.90;99.90;;;;;;6281042;22;20443;-93
2023/12/27 06:05:42;;;;;;;19.50;11.18;;;2.30;99.90;;;;;;6281060;22;20020;-92
2023/12/27 06:08:15;;;;;;;15.32;10.57;;;1.10;99.90;;;;;;6256838;22;20016;-92
2023/12/27 06:11:11;;;;;;;;;;;;;;;;;;;;;
2023/12/27 06:13:38;;;;;;;18.35;11.57;;;0.80;99.90;;;;;;6306495;22;20026;-93
2023/12/27 06:16:20;;;;;;;16.83;10.70;;;1.20;99.90;;;;;;6306624;22;20455;-93
2023/12/27 06:18:58;;;;;;;;;;;;;;;;;;;;;
2023/12/27 06:21:37;;;;;;;25.13;13.30;;;2.40;99.90;;;;;;6306250;22;20034;-93
2023/12/27 06:27:12;;;;;;;17.70;10.15;;;1.20;99.90;;;;;;6284762;22;20462;-92
2023/12/27 06:29:48;;;;;;;21.13;11.20;;;1.80;99.90;;;;;;6259400;22;20016;-92
2023/12/27 06:32:20;;;;;;;24.17;11.15;;;1.40;99.90;;;;;;6255999;22;20311;-92
2023/12/27 06:34:56;;;;;;;20.05;10.55;;;2.70;99.90;;;;;;6281252;22;20019;-93
2023/12/27 06:37:48;;;;;;;16.63;10.07;;;2.10;99.90;;;;;;6280242;22;20023;-93
2023/12/27 06:40:28;;;;;;;13.85;8.82;;;0.60;99.90;;;;;;6283772;22;20094;-92
2023/12/27 06:42:56;;;;;;;14.25;8.38;;;1.30;99.90;;;;;;6256764;22;20433;-94
2023/12/27 06:45:22;;;;;;;13.98;8.68;;;1.30;99.90;;;;;;6280379;22;20019;-93
2023/12/27 06:47:59;;;;;;;49.30;11.47;;;1.30;99.90;;;;;;6279740;22;20094;-92
2023/12/27 06:50:27;;;;;;;16.50;9.20;;;0.60;99.90;;;;;;6280742;22;20331;-92
2023/12/27 06:52:54;;;;;;;19.58;9.32;;;1.30;99.90;;;;;;6254381;22;20023;-92
2023/12/27 06:55:26;;;;;;;18.33;9.50;;;0.80;99.90;;;;;;6280204;22;20057;-93
2023/12/27 06:57:56;;;;;;;16.98;9.60;;;2.10;99.90;;;;;;6280158;22;20342;-93
2023/12/27 07:00:22;;;;;;;24.42;9.77;;;1.50;99.90;;;;;;6255001;22;20453;-93
2023/12/27 07:02:56;;;;;;;20.90;9.77;;;2.30;99.90;;;;;;6254625;22;20038;-93
2023/12/27 07:05:27;;;;;;;21.90;9.05;;;1.60;99.90;;;;;;6280383;22;20019;-92
2023/12/27 07:07:53;;;;;;;18.30;8.85;;;1.60;99.90;;;;;;6280114;22;20016;-93
2023/12/27 07:10:23;;;;;;;20.13;9.00;;;1.70;99.90;;;;;;6280553;22;20016;-93
2023/12/27 07:13:08;;;;;;;12.43;8.05;;;1.70;99.90;;;;;;6230148;22;20026;-92
2023/12/27 07:15:56;;;;;;;20.90;8.07;;;3.00;99.90;;;;;;6280390;22;20019;-96
2023/12/27 07:18:26;;;;;;;20.17;9.85;;;1.70;99.90;;;;;;6280306;22;20339;-93
2023/12/27 07:21:06;;;;;;;12.98;7.30;;;1.90;99.90;;;;;;6280371;22;20015;-93
2023/12/27 07:23:47;;;;;;;;;;;;;;;;;;;;;
2023/12/27 07:29:21;;;;;;;18.45;8.23;;;1.80;99.90;;;;;;6273233;22;20018;-91
2023/12/27 07:31:47;;;;;;;18.13;8.75;;;1.90;99.90;;;;;;6252437;22;20458;-89
2023/12/27 07:34:15;;;;;;;16.97;8.87;;;2.00;99.90;;;;;;6254564;22;20026;-88
2023/12/27 07:36:41;;;;;;;20.40;8.48;;;1.90;99.90;;;;;;6279338;22;20019;-89
2023/12/27 07:39:09;;;;;;;18.83;7.90;;;2.00;99.90;;;;;;6279727;22;20454;-89
2023/12/27 07:42:30;;;;;;;;;;;;;;;;;;;;;
2023/12/27 07:49:42;;;;;;;19.60;9.15;;;2.00;99.90;;;;;;6307096;22;20101;-94
2023/12/27 07:52:32;;;;;;;17.55;10.10;;;2.10;99.90;;;;;;6305846;22;20015;-94
2023/12/27 07:55:23;;;;;;;;;;;;;;;;;;;;;
2023/12/27 07:58:17;;;;;;;18.05;10.75;;;1.20;99.90;;;;;;6261212;22;20058;-92
2023/12/27 08:01:09;;;;;;;21.40;11.68;;;2.30;99.90;;;;;;6258713;22;20015;-91
2023/12/27 08:03:40;;;;;;;18.38;11.73;;;2.30;99.90;;;;;;6279405;22;20102;-91
2023/12/27 08:06:17;;;;;;;23.50;12.75;;;2.30;99.90;;;;;;6254180;22;20450;-94
2023/12/27 08:08:56;;;;;;;22.38;12.40;;;2.30;99.90;;;;;;6305075;22;20505;-91
2023/12/27 08:11:32;;;;;;;24.70;13.52;;;2.40;99.90;;;;;;6279058;22;20081;-93
2023/12/27 08:14:06;;;;;;;25.23;13.30;;;2.50;99.90;;;;;;6279865;22;20026;-91
2023/12/27 08:16:34;;;;;;;23.10;13.68;;;2.30;99.90;;;;;;6278495;22;20253;-91
2023/12/27 08:19:05;;;;;;;30.13;14.70;;;2.30;99.90;;;;;;6253150;22;20457;-91
2023/12/27 08:21:32;;;;;;;23.30;13.77;;;2.30;99.90;;;;;;6255088;22;20061;-90
2023/12/27 08:24:09;;;;;;;;;;;;;;;;;;;;;
2023/12/27 08:26:42;;;;;;;19.13;14.55;;;2.60;99.90;;;;;;6304657;22;20019;-91
2023/12/27 08:29:11;;;;;;;24.23;13.27;;;2.30;99.90;;;;;;6256115;22;20019;-91
2023/12/27 08:31:37;;;;;;;22.83;14.90;;;3.90;99.90;;;;;;6255773;22;20011;-91
2023/12/27 08:34:06;;;;;;;21.20;14.10;;;2.20;99.90;;;;;;6280743;22;20019;-91
2023/12/27 08:36:34;;;;;;;21.95;13.43;;;2.30;99.90;;;;;;6280540;22;20023;-90
2023/12/27 08:39:00;;;;;;;22.50;13.95;;;3.50;99.90;;;;;;6279593;22;20015;-91
2023/12/27 08:41:26;;;;;;;19.43;13.17;;;2.50;99.90;;;;;;6280958;22;20473;-90
2023/12/27 08:43:55;;;;;;;23.17;13.82;;;2.60;99.90;;;;;;6279216;22;20015;-90
2023/12/27 08:46:21;;;;;;;20.80;13.45;;;2.70;99.90;;;;;;6280495;22;20102;-89
2023/12/27 08:48:50;;;;;;;23.70;13.73;;;2.60;99.90;;;;;;6281744;22;20065;-94
2023/12/27 08:51:26;;;;;;;19.58;12.45;;;2.80;99.90;;;;;;6257183;22;20083;-91
2023/12/27 08:53:54;;;;;;;21.85;12.05;;;4.00;99.90;;;;;;6280237;22;20144;-90
2023/12/27 08:56:26;;;;;;;20.75;12.60;;;2.80;99.90;;;;;;6280912;22;20019;-91
2023/12/27 08:58:55;;;;;;;18.92;11.70;;;4.00;99.90;;;;;;6281150;22;20403;-91
2023/12/27 09:01:31;;;;;;;21.27;11.97;;;2.80;99.90;;;;;;6229329;22;20023;-91
2023/12/27 09:04:00;;;;;;;20.90;12.10;;;2.90;99.90;;;;;;6280666;22;20015;-91
2023/12/27 09:06:28;;;;;;;19.77;11.98;;;3.00;99.90;;;;;;6255687;22;20058;-88
2023/12/27 09:08:57;;;;;;;22.67;12.60;;;3.00;99.90;;;;;;6258994;22;20011;-92
2023/12/27 09:11:27;;;;;;;24.15;12.63;;;2.10;99.90;;;;;;6281210;22;20015;-95
2023/12/27 09:14:05;;;;;;;19.77;10.90;;;3.00;99.90;;;;;;6281119;22;20057;-96
2023/12/27 09:16:49;;;;;;;;;;;;;;;;;;;;;
2023/12/27 09:19:17;;;;;;;24.42;11.02;;;3.10;99.90;;;;;;6283663;22;20346;-91
2023/12/27 09:21:49;;;;;;;18.80;11.60;;;4.40;99.90;;;;;;6256199;22;20023;-88
2023/12/27 09:24:36;;;;;;;20.58;11.57;;;3.10;99.90;;;;;;6306419;22;20046;-93
2023/12/27 09:27:13;;;;;;;21.17;10.43;;;3.30;99.90;;;;;;6257704;22;20011;-93
2023/12/27 09:29:46;;;;;;;;;;;3.20;99.90;;;;;;6281638;22;20016;-93
2023/12/27 09:32:18;;;;;;;23.70;12.52;;;3.30;99.90;;;;;;6280666;22;19948;-93
2023/12/27 09:34:55;;;;;;;17.05;11.40;;;2.80;99.90;;;;;;6280892;22;20022;-92
2023/12/27 09:37:24;;;;;;;24.90;12.15;;;3.40;99.90;;;;;;6255319;22;20022;-92
2023/12/27 09:39:53;;;;;;;20.88;10.52;;;4.20;99.90;;;;;;6281524;22;20439;-92
2023/12/27 09:42:24;;;;;;;25.00;12.40;;;2.50;99.90;;;;;;6281209;22;20168;-92
2023/12/27 09:45:02;;;;;;;23.48;11.63;;;3.50;99.90;;;;;;6281167;22;20023;-95
2023/12/27 09:47:32;;;;;;;23.20;11.95;;;3.50;99.90;;;;;;6281110;22;20058;-91
2023/12/27 09:50:09;;;;;;;;;;;;;;;;;;;;;
2023/12/27 09:52:49;;;;;;;27.55;14.10;;;3.50;99.90;;;;;;6306566;22;20015;-91
2023/12/27 09:55:24;;;;;;;24.58;12.18;;;3.10;99.90;;;;;;6281394;22;20030;-91
2023/12/27 09:58:04;;;;;;;24.73;12.60;;;3.60;99.90;;;;;;6281132;22;20022;-93
2023/12/27 10:00:38;;;;;;;25.27;12.48;;;3.70;99.90;;;;;;6232951;22;20094;-92
2023/12/27 10:03:14;;;;;;;25.13;13.82;;;3.70;99.90;;;;;;6280815;22;20447;-93
2023/12/27 10:06:14;;;;;;;;;;;;;;;;;;;;;
2023/12/27 10:08:50;;;;;;;27.58;11.98;;;4.20;99.90;;;;;;6306948;22;20019;-91
2023/12/27 10:11:19;;;;;;;21.73;11.32;;;2.90;99.90;;;;;;6256751;22;20050;-91
2023/12/27 10:17:35;;;;;;;21.15;10.88;;;3.30;99.90;;;;;;6267002;22;20025;-93
2023/12/27 10:20:36;;;;;;;;;;;3.90;99.90;;;;;;6282301;22;20388;-95
2023/12/27 10:23:10;;;;;;;21.90;11.40;;;4.10;99.90;;;;;;6281094;22;19921;-96
2023/12/27 10:26:01;;;;;;;21.08;11.98;;;3.90;99.90;;;;;;6256050;22;20015;-94
2023/12/27 10:28:35;;;;;;;26.23;11.95;;;4.80;99.90;;;;;;6281507;22;20045;-94
2023/12/27 10:31:16;;;;;;;23.55;11.93;;;3.50;99.90;;;;;;6257377;22;20072;-94
2023/12/27 10:34:24;;;;;;;21.27;11.27;;;4.00;99.90;;;;;;6281123;22;20011;-93
2023/12/27 10:37:07;;;;;;;21.60;11.48;;;4.20;99.90;;;;;;6250523;22;20015;-94
2023/12/27 10:39:50;;;;;;;17.63;11.18;;;3.40;99.90;;;;;;6282870;22;20019;-94
2023/12/27 10:42:28;;;;;;;;;;;;;;;;;;;;;
2023/12/27 10:45:06;;;;;;;22.75;11.57;;;4.30;99.90;;;;;;6306521;22;20320;-93
2023/12/27 10:47:57;;;;;;;17.20;11.13;;;4.30;99.90;;;;;;6233112;22;20011;-92
2023/12/27 10:50:23;;;;;;;25.60;12.98;;;4.20;99.90;;;;;;6302024;22;20019;-92
2023/12/27 10:53:02;;;;;;;21.00;13.38;;;4.40;99.90;;;;;;6280621;22;20064;-93
2023/12/27 10:55:39;;;;;;;23.17;12.43;;;4.40;99.90;;;;;;6280727;22;20019;-91
2023/12/27 10:58:37;;;;;;;20.27;12.27;;;4.30;99.90;;;;;;6279819;22;20029;-96
2023/12/27 11:01:12;;;;;;;25.85;13.95;;;3.40;99.90;;;;;;6282609;22;20485;-92
2023/12/27 11:03:43;;;;;;;23.92;14.82;;;4.30;99.90;;;;;;6254617;22;20324;-90
2023/12/27 11:06:21;;;;;;;24.23;13.20;;;4.40;99.90;;;;;;6282230;22;20473;-95
2023/12/27 11:08:52;;;;;;;19.85;13.27;;;4.30;99.90;;;;;;6306267;22;20402;-90
2023/12/27 11:11:28;;;;;;;24.33;13.70;;;4.30;99.90;;;;;;6279436;22;20470;-95
2023/12/27 11:14:08;;;;;;;;;;;;;;;;;;;;;
2023/12/27 11:16:58;;;;;;;23.08;13.85;;;4.50;99.90;;;;;;6305522;22;20435;-90
2023/12/27 11:19:44;;;;;;;22.92;14.38;;;4.30;99.90;;;;;;6279628;22;20404;-91
2023/12/27 11:22:18;;;;;;;22.00;14.02;;;4.40;99.90;;;;;;6255412;22;20152;-90
2023/12/27 11:24:54;;;;;;;25.40;14.63;;;4.30;99.90;;;;;;6254577;22;20026;-91
2023/12/27 11:27:23;;;;;;;27.02;17.13;;;4.10;99.90;;;;;;6280185;22;20019;-91
2023/12/27 11:29:56;;;;;;;29.40;17.80;;;4.40;99.90;;;;;;6306936;22;20026;-90
2023/12/27 11:32:27;;;;;;;24.00;14.40;;;4.40;99.90;;;;;;6280069;22;20457;-90
2023/12/27 11:34:59;;;;;;;28.48;13.57;;;4.40;99.90;;;;;;6279959;22;20519;-90
2023/12/27 11:37:24;;;;;;;27.25;15.82;;;4.40;99.90;;;;;;6305506;22;20012;-89
2023/12/27 11:39:58;;;;;;;26.67;15.97;;;4.40;99.90;;;;;;6280031;22;20102;-91
2023/12/27 11:42:30;;;;;;;28.17;15.02;;;3.60;99.90;;;;;;6255906;22;20338;-91
2023/12/27 11:44:58;;;;;;;32.28;17.83;;;4.60;99.90;;;;;;6279825;22;20015;-90
2023/12/27 11:47:30;;;;;;;29.25;17.20;;;4.50;99.90;;;;;;6279328;22;20015;-91
2023/12/27 11:50:19;;;;;;;38.15;18.38;;;3.60;99.90;;;;;;6280059;22;20051;-91
2023/12/27 11:53:35;;;;;;;;;;;;;;;;;;;;;
2023/12/27 11:56:30;;;;;;;;;;;;;;;;;;;;;
2023/12/27 12:02:52;;;;;;;;;;;;;;;;;;;;;
2023/12/27 12:05:48;;;;;;;35.15;19.48;;;4.60;99.90;;;;;;6313082;22;20015;-91
2023/12/27 12:09:28;;;;;;;;;;;;;;;;;;;;;
2023/12/27 12:12:25;;;;;;;35.75;21.13;;;4.90;99.90;;;;;;6188025;23;20021;-92
2023/12/27 12:15:04;;;;;;;;;;;;;;;;;;;;;
2023/12/27 12:17:48;;;;;;;38.90;23.27;;;3.60;99.90;;;;;;6189036;23;20013;-93
2023/12/27 12:21:10;;;;;;;;;;;;;;;;;;;;;
2023/12/27 12:24:15;;;;;;;;;;;;;;;;;;;;;
2023/12/27 12:30:54;;;;;;;37.78;23.10;;;4.70;99.90;;;;;;6173598;23;20019;-93
2023/12/27 12:33:26;;;;;;;35.85;20.90;;;4.60;99.90;;;;;;6165305;23;20529;-93
2023/12/27 12:36:22;;;;;;;;;;;;;;;;;;;;;
2023/12/27 12:39:13;;;;;;;35.97;22.92;;;4.70;99.90;;;;;;6308357;22;20339;-92
2023/12/27 12:41:48;;;;;;;36.70;23.27;;;4.70;99.90;;;;;;6281421;22;20016;-92
2023/12/27 12:44:17;;;;;;;32.95;20.30;;;4.70;99.90;;;;;;6281311;22;20018;-91
2023/12/27 12:46:48;;;;;;;34.33;21.50;;;4.70;99.90;;;;;;6281217;22;20015;-91
2023/12/27 12:49:18;;;;;;;34.78;21.52;;;4.80;99.90;;;;;;6255540;22;20402;-91
2023/12/27 12:51:55;;;;;;;;;;;;;;;;;;;;;
2023/12/27 12:54:21;;;;;;;34.53;22.38;;;4.90;99.90;;;;;;6306908;22;20022;-92
2023/12/27 12:57:05;;;;;;;37.58;23.00;;;5.00;99.90;;;;;;6281141;22;20023;-92
2023/12/27 12:59:49;;;;;;;39.50;24.20;;;4.90;99.90;;;;;;6281231;22;20016;-93
2023/12/27 13:03:06;;;;;;;41.83;25.05;;;4.60;99.90;;;;;;6281497;22;20011;-92
2023/12/27 13:05:56;;;;;;;36.90;23.52;;;5.10;99.90;;;;;;6240297;22;20022;-95
2023/12/27 13:08:30;;;;;;;38.55;24.23;;;4.30;99.90;;;;;;6257529;22;20071;-91
2023/12/27 13:10:59;;;;;;;44.42;26.98;;;5.10;99.90;;;;;;6256016;22;20015;-92
2023/12/27 13:13:35;;;;;;;45.20;25.63;;;5.20;99.90;;;;;;6230652;22;20015;-91
2023/12/27 13:16:06;;;;;;;44.30;26.70;;;5.10;99.90;;;;;;6280139;22;20022;-91
2023/12/27 13:18:38;;;;;;;48.50;27.77;;;5.10;99.90;;;;;;6256512;22;20026;-91
2023/12/27 13:21:18;;;;;;;;;;;;;;;;;;;;;
2023/12/27 13:23:44;;;;;;;46.03;26.98;;;5.30;99.90;;;;;;6306695;22;20342;-91
2023/12/27 13:26:19;;;;;;;48.67;29.87;;;5.40;99.90;;;;;;6281339;22;20090;-92
2023/12/27 13:28:49;;;;;;;50.40;28.90;;;5.40;99.90;;;;;;6256893;22;20245;-92
2023/12/27 13:31:15;;;;;;;56.75;30.73;;;5.70;99.90;;;;;;6256533;22;20051;-91
2023/12/27 13:33:46;;;;;;;51.92;30.65;;;5.70;99.90;;;;;;6281589;22;20053;-91
2023/12/27 13:36:31;;;;;;;;;;;;;;;;;;;;;
2023/12/27 13:39:00;;;;;;;55.47;31.92;;;5.50;99.90;;;;;;6259704;22;20012;-92
2023/12/27 13:41:36;;;;;;;53.72;30.70;;;5.60;99.90;;;;;;6281047;22;20019;-92
2023/12/27 13:44:07;;;;;;;55.08;30.63;;;5.40;99.90;;;;;;6255717;22;20090;-91
2023/12/27 13:46:36;;;;;;;50.42;29.50;;;5.60;99.90;;;;;;6257455;22;20446;-91
2023/12/27 13:49:22;;;;;;;57.63;31.17;;;5.60;99.90;;;;;;6281077;22;20050;-92
2023/12/27 13:51:54;;;;;;;50.05;29.73;;;5.60;99.90;;;;;;6306147;22;20023;-94
2023/12/27 13:54:31;;;;;;;54.63;30.33;;;5.70;99.90;;;;;;6280305;22;20015;-90
2023/12/27 13:57:02;;;;;;;;;;;5.70;99.90;;;;;;6255705;22;20019;-92
2023/12/27 13:59:30;;;;;;;54.35;30.25;;;4.70;99.90;;;;;;6280055;22;19914;-93
2023/12/27 14:02:04;;;;;;;53.13;30.33;;;4.80;99.90;;;;;;6254673;22;20019;-91
2023/12/27 14:04:33;;;;;;;54.90;31.48;;;5.30;99.90;;;;;;6280300;22;20034;-91
2023/12/27 14:07:09;;;;;;;52.80;31.85;;;5.80;99.90;;;;;;6280285;22;20015;-91
2023/12/27 14:09:53;;;;;;;;;;;;;;;;;;;;;
2023/12/27 14:12:28;;;;;;;55.10;28.42;;;6.80;99.90;;;;;;6306170;22;20011;-91
2023/12/27 14:14:57;;;;;;;55.05;31.83;;;5.80;99.90;;;;;;6280167;22;20455;-94
2023/12/27 14:17:28;;;;;;;52.03;31.65;;;5.80;99.90;;;;;;6281039;22;20090;-90
2023/12/27 14:19:59;;;;;;;55.78;34.08;;;5.80;99.90;;;;;;6280021;22;20068;-92
2023/12/27 14:22:25;;;;;;;48.53;30.25;;;6.00;99.90;;;;;;6254235;22;20019;-90
2023/12/27 14:24:51;;;;;;;52.70;31.57;;;5.90;99.90;;;;;;6278738;22;20022;-91
2023/12/27 14:27:26;;;;;;;46.87;28.37;;;5.80;99.90;;;;;;6279508;22;20500;-90
2023/12/27 14:30:04;;;;;;;50.38;29.35;;;5.10;99.90;;;;;;6280772;22;20022;-90
2023/12/27 14:32:44;;;;;;;46.28;29.17;;;5.00;99.90;;;;;;6280868;22;20019;-91
2023/12/27 14:35:12;;;;;;;48.80;29.48;;;5.90;99.90;;;;;;6232140;22;20015;-91
2023/12/27 14:38:01;;;;;;;48.22;29.48;;;5.90;99.90;;;;;;6280356;22;20019;-92
2023/12/27 14:40:34;;;;;;;46.55;27.73;;;5.70;99.90;;;;;;6280068;22;20038;-90
2023/12/27 14:43:09;;;;;;;59.13;31.48;;;5.40;99.90;;;;;;6305427;22;20455;-92
2023/12/27 14:45:45;;;;;;;;;;;6.00;99.90;;;;;;6281407;22;20451;-93
2023/12/27 14:48:16;;;;;;;44.53;27.98;;;6.00;99.90;;;;;;6279286;22;19965;-91
2023/12/27 14:50:42;;;;;;;48.38;29.00;;;6.00;99.90;;;;;;6279551;22;20101;-90
2023/12/27 14:53:07;;;;;;;45.67;27.70;;;6.00;99.90;;;;;;6279573;22;20045;-90
2023/12/27 14:55:45;;;;;;;39.87;25.13;;;6.20;99.90;;;;;;6304700;22;20015;-91
2023/12/27 14:58:16;;;;;;;45.65;25.77;;;6.10;99.90;;;;;;6232264;22;20081;-91